Time;durP1;ratioP1;P1;durP2;ratioP2;P2;SDS_P1;SDS_P2;PMS_P1;PMS_P2;Temp;Humidity;BMP_temperature;BMP_pressure;BME280_temperature;BME280_humidity;BME280_pressure;Samples;Min_cycle;Max_cycle;Signal;HPM_P1;HPM_P2
2022/08/06 00:02:15;;;;;;;0.00;0.00;;;;;;;9.90;93.16;102506.34;4943808;28;20574;-69
2022/08/06 00:04:40;;;;;;;0.00;0.00;;;;;;;9.59;93.23;102472.94;4944292;28;20073;-69
2022/08/06 00:07:05;;;;;;;0.05;0.05;;;;;;;9.71;93.26;102497.41;4944390;28;20344;-69
2022/08/06 00:09:30;;;;;;;0.00;0.00;;;;;;;9.59;93.77;102493.50;4940521;28;20027;-69
2022/08/06 00:12:00;;;;;;;0.10;0.10;;;;;;;9.61;93.94;102510.41;4943858;28;20114;-69
2022/08/06 00:14:27;;;;;;;0.10;0.10;;;;;;;9.59;95.05;102512.28;4948392;28;20032;-69
2022/08/06 00:16:52;;;;;;;0.10;0.10;;;;;;;9.56;95.14;102515.09;4953233;28;20047;-69
2022/08/06 00:19:17;;;;;;;0.05;0.05;;;;;;;9.42;95.87;102500.53;4948943;28;20554;-69
2022/08/06 00:21:43;;;;;;;0.03;0.03;;;;;;;9.54;96.23;102520.56;4943878;28;20058;-68
2022/08/06 00:24:08;;;;;;;0.00;0.00;;;;;;;9.51;95.63;102519.84;4951064;28;20078;-69
2022/08/06 00:26:33;;;;;;;0.10;0.10;;;;;;;9.48;94.65;102515.47;4945383;28;20069;-69
2022/08/06 00:28:59;;;;;;;0.00;0.00;;;;;;;9.43;94.66;102521.06;4944553;28;20039;-69
2022/08/06 00:31:24;;;;;;;0.03;0.03;;;;;;;9.32;95.20;102509.94;4951930;28;20693;-69
2022/08/06 00:33:49;;;;;;;0.10;0.10;;;;;;;9.35;95.00;102525.88;4949670;28;20046;-69
2022/08/06 00:36:15;;;;;;;0.10;0.10;;;;;;;9.22;94.43;102520.22;4944802;28;20032;-69
2022/08/06 00:38:40;;;;;;;0.00;0.00;;;;;;;9.17;94.82;102513.31;4940912;28;20078;-69
2022/08/06 00:41:05;;;;;;;0.10;0.10;;;;;;;9.26;94.94;102526.31;4944574;28;20146;-69
2022/08/06 00:43:31;;;;;;;0.10;0.10;;;;;;;9.18;94.86;102507.03;4951677;28;20035;-69
2022/08/06 00:45:56;;;;;;;0.00;0.00;;;;;;;9.18;94.73;102517.75;4950014;28;20082;-69
2022/08/06 00:48:22;;;;;;;0.00;0.00;;;;;;;9.31;94.95;102537.69;4944335;28;20023;-69
2022/08/06 00:50:47;;;;;;;0.00;0.00;;;;;;;9.28;94.50;102538.72;4944771;28;20521;-69
2022/08/06 00:53:12;;;;;;;0.00;0.00;;;;;;;9.25;94.64;102544.19;4943177;28;20511;-69
2022/08/06 00:55:38;;;;;;;0.00;0.00;;;;;;;9.13;94.77;102528.69;4940549;28;20046;-69
2022/08/06 00:58:04;;;;;;;0.10;0.10;;;;;;;9.23;95.53;102529.13;4943409;28;20035;-69
2022/08/06 01:00:29;;;;;;;0.08;0.08;;;;;;;9.42;95.52;102553.28;4952438;28;20107;-68
2022/08/06 01:02:55;;;;;;;0.10;0.10;;;;;;;9.51;95.10;102549.34;4947049;28;20027;-69
2022/08/06 01:05:20;;;;;;;0.10;0.10;;;;;;;9.51;94.15;102552.88;4946262;28;20031;-69
2022/08/06 01:07:45;;;;;;;0.10;0.10;;;;;;;9.43;93.14;102555.91;4955937;28;20611;-69
2022/08/06 01:10:10;;;;;;;0.00;0.00;;;;;;;9.31;93.28;102529.63;4937989;28;20082;-69
2022/08/06 01:12:36;;;;;;;0.00;0.00;;;;;;;9.27;93.28;102546.84;4943239;28;20471;-69
2022/08/06 01:15:05;;;;;;;0.10;0.10;;;;;;;9.31;93.45;102561.81;4953250;28;20058;-69
2022/08/06 01:17:39;;;;;;;0.10;0.10;;;;;;;9.27;93.51;102574.50;4947376;28;20415;-69
2022/08/06 01:20:50;;;;;;;0.00;0.00;;;;;;;9.26;92.98;102561.16;4941984;28;20106;-68
2022/08/06 01:23:28;;;;;;;0.00;0.00;;;;;;;9.25;93.50;102564.78;4943756;28;20032;-69
2022/08/06 01:26:06;;;;;;;0.00;0.00;;;;;;;9.20;93.16;102556.94;4942170;28;20058;-69
2022/08/06 01:28:34;;;;;;;0.00;0.00;;;;;;;9.21;92.89;102563.19;4951074;28;20471;-68
2022/08/06 01:31:09;;;;;;;0.10;0.10;;;;;;;9.09;93.04;102561.91;4937855;28;20555;-69
2022/08/06 01:33:41;;;;;;;0.00;0.00;;;;;;;9.01;94.11;102572.94;4942885;28;20031;-69
2022/08/06 01:36:09;;;;;;;0.00;0.00;;;;;;;8.96;95.00;102572.28;4950449;28;20026;-68
2022/08/06 01:38:44;;;;;;;0.10;0.10;;;;;;;8.96;95.36;102574.97;4939609;28;20039;-69
2022/08/06 01:41:11;;;;;;;0.03;0.03;;;;;;;8.95;95.53;102579.44;4935759;28;20031;-69
2022/08/06 01:43:37;;;;;;;0.10;0.10;;;;;;;8.88;95.58;102563.72;4941620;28;20038;-71
2022/08/06 01:46:03;;;;;;;0.10;0.10;;;;;;;8.93;95.62;102573.28;4924093;28;20035;-68
2022/08/06 01:48:31;;;;;;;0.00;0.00;;;;;;;8.94;95.57;102580.38;4941958;28;20111;-68
2022/08/06 01:50:58;;;;;;;0.05;0.05;;;;;;;8.92;95.21;102574.22;4933700;28;20035;-69
2022/08/06 01:53:33;;;;;;;0.10;0.10;;;;;;;8.87;95.10;102573.56;4940731;28;20047;-69
2022/08/06 01:56:01;;;;;;;0.00;0.00;;;;;;;8.87;95.76;102570.00;4942846;28;20030;-68
2022/08/06 01:58:29;;;;;;;0.10;0.10;;;;;;;8.87;95.71;102578.03;4943456;28;20069;-69
2022/08/06 02:00:55;;;;;;;0.10;0.10;;;;;;;8.89;94.70;102582.38;4939396;28;20400;-68
2022/08/06 02:03:44;;;;;;;0.00;0.00;;;;;;;8.84;94.49;102584.41;4941163;28;20042;-68
2022/08/06 02:06:12;;;;;;;0.10;0.10;;;;;;;8.78;94.54;102590.03;4935434;29;20090;-69
2022/08/06 02:08:39;;;;;;;0.00;0.00;;;;;;;8.76;95.16;102587.38;4955457;28;20047;-68
2022/08/06 02:11:07;;;;;;;0.00;0.00;;;;;;;8.75;95.53;102584.78;4945529;28;20035;-69
2022/08/06 02:13:33;;;;;;;0.10;0.10;;;;;;;8.72;95.52;102582.25;4953005;28;20030;-69
2022/08/06 02:16:01;;;;;;;0.10;0.10;;;;;;;8.73;97.46;102582.19;4940987;28;20031;-69
2022/08/06 02:18:30;;;;;;;0.03;0.03;;;;;;;8.79;97.71;102589.09;4943448;28;20047;-69
2022/08/06 02:20:56;;;;;;;0.00;0.00;;;;;;;8.83;97.18;102588.03;4947568;28;20063;-69
2022/08/06 02:23:23;;;;;;;0.05;0.05;;;;;;;8.74;95.95;102565.16;4943962;28;20031;-69
2022/08/06 02:25:51;;;;;;;0.10;0.10;;;;;;;8.88;95.34;102572.59;4950213;28;20039;-69
2022/08/06 02:28:18;;;;;;;0.08;0.08;;;;;;;8.87;94.62;102584.28;4940925;28;20042;-69
2022/08/06 02:30:46;;;;;;;0.10;0.10;;;;;;;8.84;94.58;102585.25;4940618;28;20501;-68
2022/08/06 02:33:12;;;;;;;0.00;0.00;;;;;;;8.83;94.24;102588.03;4937862;28;20039;-69
2022/08/06 02:35:44;;;;;;;0.03;0.03;;;;;;;8.74;93.95;102583.91;4943405;28;20031;-68
2022/08/06 02:38:15;;;;;;;0.03;0.03;;;;;;;8.68;94.10;102582.38;4945831;28;20040;-69
2022/08/06 02:40:46;;;;;;;0.00;0.00;;;;;;;8.62;94.71;102584.44;4941980;28;20031;-69
2022/08/06 02:43:12;;;;;;;0.10;0.10;;;;;;;8.60;95.31;102592.53;4940334;28;20095;-69
2022/08/06 02:45:48;;;;;;;0.10;0.10;;;;;;;8.54;95.66;102599.00;4951417;28;20439;-69
2022/08/06 02:48:20;;;;;;;0.00;0.00;;;;;;;8.45;96.34;102588.66;4941461;28;20023;-68
2022/08/06 02:50:47;;;;;;;0.08;0.08;;;;;;;8.49;96.74;102595.63;4940472;28;20071;-68
2022/08/06 02:53:18;;;;;;;0.10;0.10;;;;;;;8.51;97.67;102591.09;4944193;28;20106;-69
2022/08/06 02:55:46;;;;;;;0.10;0.10;;;;;;;8.58;98.17;102602.44;4938335;28;20397;-68
2022/08/06 02:58:16;;;;;;;0.10;0.10;;;;;;;8.64;98.21;102604.84;4936768;28;20056;-69
2022/08/06 03:00:44;;;;;;;0.00;0.00;;;;;;;8.65;96.84;102603.06;4932686;28;20364;-69
2022/08/06 03:03:10;;;;;;;0.00;0.00;;;;;;;8.63;95.96;102600.41;4937505;28;20059;-69
2022/08/06 03:05:36;;;;;;;0.10;0.10;;;;;;;8.63;95.49;102589.72;4933094;28;20050;-68
2022/08/06 03:08:02;;;;;;;0.10;0.10;;;;;;;8.59;95.37;102592.59;4936680;28;20062;-69
2022/08/06 03:10:28;;;;;;;0.00;0.00;;;;;;;8.64;94.71;102604.84;4937567;28;20074;-68
2022/08/06 03:12:54;;;;;;;0.00;0.00;;;;;;;8.61;94.47;102609.47;4933516;28;20035;-69
2022/08/06 03:15:20;;;;;;;0.00;0.00;;;;;;;8.30;94.30;102567.84;4939479;28;20094;-69
2022/08/06 03:17:45;;;;;;;0.00;0.00;;;;;;;8.42;94.52;102604.84;4940906;28;20039;-69
2022/08/06 03:20:13;;;;;;;0.10;0.10;;;;;;;8.38;94.75;102605.88;4937488;28;20027;-69
2022/08/06 03:22:38;;;;;;;0.10;0.10;;;;;;;8.33;94.91;102603.41;4945908;28;20385;-68
2022/08/06 03:25:07;;;;;;;0.00;0.00;;;;;;;8.33;94.82;102606.09;4938696;28;20054;-69
2022/08/06 03:27:34;;;;;;;0.10;0.10;;;;;;;8.35;94.36;102608.69;4937661;28;20030;-69
2022/08/06 03:29:59;;;;;;;0.00;0.00;;;;;;;8.32;94.37;102608.81;4940842;28;20111;-68
2022/08/06 03:32:25;;;;;;;0.08;0.08;;;;;;;8.14;94.66;102589.00;4942745;28;20422;-69
2022/08/06 03:34:51;;;;;;;0.00;0.00;;;;;;;8.26;95.32;102617.97;4939795;28;20120;-68
2022/08/06 03:37:17;;;;;;;0.05;0.05;;;;;;;8.26;95.64;102613.47;4933610;28;20035;-68
2022/08/06 03:39:43;;;;;;;0.00;0.00;;;;;;;8.26;95.69;102610.78;4937333;28;20035;-69
2022/08/06 03:42:08;;;;;;;0.10;0.10;;;;;;;8.00;95.47;102573.50;4933576;28;20050;-69
2022/08/06 03:44:34;;;;;;;0.10;0.10;;;;;;;8.25;95.94;102618.88;4937105;28;20047;-69
2022/08/06 03:47:21;;;;;;;0.10;0.10;;;;;;;8.25;96.48;102622.44;4944381;28;20027;-69
2022/08/06 03:50:12;;;;;;;0.10;0.10;;;;;;;8.22;95.84;102622.53;4937548;28;20031;-69
2022/08/06 03:52:41;;;;;;;0.10;0.10;;;;;;;8.17;94.86;102619.19;4932918;28;20900;-69
2022/08/06 03:55:08;;;;;;;0.03;0.03;;;;;;;8.08;94.80;102623.06;4949236;28;20067;-69
2022/08/06 03:57:42;;;;;;;0.10;0.10;;;;;;;8.03;95.12;102618.84;4940030;28;20081;-68
2022/08/06 04:00:09;;;;;;;0.10;0.10;;;;;;;7.99;96.30;102630.59;4935918;28;20055;-69
2022/08/06 04:02:42;;;;;;;0.00;0.00;;;;;;;7.93;96.26;102629.03;4935960;28;20035;-69
2022/08/06 04:05:10;;;;;;;0.10;0.10;;;;;;;7.90;97.19;102630.03;4944868;28;20476;-68
2022/08/06 04:07:36;;;;;;;0.10;0.10;;;;;;;8.00;97.99;102635.91;4943593;28;20038;-68
2022/08/06 04:10:01;;;;;;;0.00;0.00;;;;;;;8.09;97.83;102648.03;4940837;28;20054;-69
2022/08/06 04:12:28;;;;;;;0.00;0.00;;;;;;;8.14;97.27;102643.41;4939134;28;20109;-69
2022/08/06 04:14:54;;;;;;;0.10;0.10;;;;;;;8.17;97.25;102643.28;4940988;28;20428;-69
2022/08/06 04:17:19;;;;;;;0.00;0.00;;;;;;;8.21;97.00;102649.38;4940973;28;20026;-68
2022/08/06 04:19:45;;;;;;;0.00;0.00;;;;;;;8.21;96.17;102644.03;4944416;28;20063;-69
2022/08/06 04:22:11;;;;;;;0.00;0.00;;;;;;;8.13;95.91;102633.63;4958101;28;20070;-69
2022/08/06 04:24:36;;;;;;;0.00;0.00;;;;;;;8.09;95.89;102643.56;4941327;28;20031;-69
2022/08/06 04:27:04;;;;;;;0.00;0.00;;;;;;;8.04;96.13;102647.34;4944765;28;20039;-68
2022/08/06 04:29:29;;;;;;;0.03;0.03;;;;;;;8.00;96.44;102648.38;4947009;28;20062;-69
2022/08/06 04:31:56;;;;;;;0.10;0.10;;;;;;;7.99;97.28;102652.00;4939948;28;20030;-69
2022/08/06 04:34:23;;;;;;;0.00;0.00;;;;;;;7.79;97.46;102625.09;4940252;28;20035;-69
2022/08/06 04:36:50;;;;;;;0.00;0.00;;;;;;;8.06;97.72;102664.22;4951985;28;20035;-69
2022/08/06 04:39:15;;;;;;;0.05;0.05;;;;;;;8.08;97.86;102660.53;4937601;28;20050;-69
2022/08/06 04:41:41;;;;;;;0.00;0.00;;;;;;;8.15;97.88;102668.34;4937891;28;20472;-68
2022/08/06 04:44:06;;;;;;;0.00;0.00;;;;;;;8.15;97.24;102668.34;4939590;28;20108;-69
2022/08/06 04:46:32;;;;;;;0.00;0.00;;;;;;;8.19;97.24;102672.63;4935429;28;20031;-68
2022/08/06 04:48:58;;;;;;;0.00;0.00;;;;;;;8.19;97.64;102670.84;4942456;28;20031;-69
2022/08/06 04:51:23;;;;;;;0.00;0.00;;;;;;;8.26;98.54;102672.34;4944268;28;20114;-69
2022/08/06 04:53:49;;;;;;;0.05;0.05;;;;;;;8.30;97.84;102674.91;4937288;28;20027;-69
2022/08/06 04:56:14;;;;;;;0.00;0.00;;;;;;;8.34;97.97;102681.88;4944255;28;20027;-68
2022/08/06 04:58:39;;;;;;;0.00;0.00;;;;;;;8.34;98.08;102680.06;4944600;28;20109;-68
2022/08/06 05:01:05;;;;;;;0.00;0.00;;;;;;;8.37;98.11;102682.63;4953842;28;20470;-68
2022/08/06 05:03:31;;;;;;;0.00;0.00;;;;;;;8.33;98.01;102669.44;4939011;28;20035;-68
2022/08/06 05:05:59;;;;;;;0.00;0.00;;;;;;;8.51;98.46;102692.81;4944934;28;20027;-68
2022/08/06 05:08:27;;;;;;;0.00;0.00;;;;;;;8.65;98.82;102689.59;4937294;28;20039;-68
2022/08/06 05:11:09;;;;;;;0.10;0.10;;;;;;;8.80;98.90;102690.78;4937439;28;20020;-68
2022/08/06 05:13:36;;;;;;;0.10;0.10;;;;;;;8.84;99.44;102673.66;4958638;28;20039;-68
2022/08/06 05:16:04;;;;;;;0.00;0.00;;;;;;;9.03;98.44;102686.28;4938937;28;20515;-68
2022/08/06 05:18:34;;;;;;;0.00;0.00;;;;;;;8.92;97.65;102664.44;4929100;28;20061;-68
2022/08/06 05:21:00;;;;;;;0.10;0.10;;;;;;;9.19;98.03;102691.00;4938885;28;20521;-68
2022/08/06 05:23:53;;;;;;;0.08;0.08;;;;;;;9.32;97.44;102692.22;4936929;28;20251;-68
2022/08/06 05:26:18;;;;;;;0.00;0.00;;;;;;;9.41;97.59;102689.16;4940931;28;20336;-69
2022/08/06 05:28:43;;;;;;;0.10;0.10;;;;;;;9.50;98.11;102700.44;4943651;28;20128;-68
2022/08/06 05:31:09;;;;;;;0.00;0.00;;;;;;;9.57;97.73;102696.50;4938423;28;20458;-68
2022/08/06 05:33:36;;;;;;;0.00;0.00;;;;;;;9.70;97.81;102695.03;4936811;28;20645;-68
2022/08/06 05:36:03;;;;;;;0.03;0.03;;;;;;;9.86;98.22;102697.91;4938929;28;20034;-68
2022/08/06 05:38:29;;;;;;;0.10;0.10;;;;;;;10.02;99.03;102707.94;4938514;28;20164;-68
2022/08/06 05:40:55;;;;;;;0.00;0.00;;;;;;;10.19;100.00;102710.75;4939575;28;20042;-69
2022/08/06 05:43:21;;;;;;;0.10;0.10;;;;;;;10.26;100.00;102697.00;4937239;28;20059;-68
2022/08/06 05:45:48;;;;;;;0.10;0.10;;;;;;;10.40;100.00;102699.06;4948276;28;20095;-68
2022/08/06 05:48:15;;;;;;;0.10;0.10;;;;;;;10.78;100.00;102724.09;4946757;28;20410;-68
2022/08/06 05:50:48;;;;;;;0.00;0.00;;;;;;;10.82;99.81;102681.84;4938544;28;20040;-69
2022/08/06 05:53:19;;;;;;;0.00;0.00;;;;;;;11.32;97.65;102717.84;4937502;28;20031;-69
2022/08/06 05:56:12;;;;;;;0.00;0.00;;;;;;;11.58;96.25;102712.94;4943190;28;20474;-68
2022/08/06 05:58:55;;;;;;;0.00;0.00;;;;;;;11.83;96.21;102722.41;4954339;28;20054;-69
2022/08/06 06:01:21;;;;;;;0.10;0.10;;;;;;;12.04;96.50;102730.34;4936991;28;20035;-68
2022/08/06 06:03:47;;;;;;;0.00;0.00;;;;;;;12.24;95.88;102732.81;4939566;28;20059;-68
2022/08/06 06:06:12;;;;;;;0.00;0.00;;;;;;;12.42;96.12;102724.66;4947073;28;20110;-69
2022/08/06 06:08:38;;;;;;;0.10;0.10;;;;;;;12.63;94.58;102733.38;4937807;28;20039;-68
2022/08/06 06:11:05;;;;;;;0.05;0.05;;;;;;;12.84;93.86;102733.13;4939139;28;20035;-68
2022/08/06 06:13:31;;;;;;;0.00;0.00;;;;;;;13.05;93.14;102731.88;4942615;28;20035;-68
2022/08/06 06:16:21;;;;;;;0.00;0.00;;;;;;;13.20;91.87;102723.84;4940190;28;20034;-68
2022/08/06 06:18:53;;;;;;;0.00;0.00;;;;;;;13.43;91.82;102735.13;4943719;28;20040;-69
2022/08/06 06:21:28;;;;;;;0.00;0.00;;;;;;;13.59;90.95;102735.06;4937371;28;20046;-69
2022/08/06 06:24:16;;;;;;;0.10;0.10;;;;;;;13.74;90.79;102736.81;4940592;28;20439;-68
2022/08/06 06:26:50;;;;;;;0.00;0.00;;;;;;;13.86;90.94;102728.94;4933882;28;20043;-68
2022/08/06 06:29:21;;;;;;;0.08;0.08;;;;;;;13.97;90.68;102726.44;4937824;28;20146;-68
2022/08/06 06:32:10;;;;;;;0.03;0.03;;;;;;;14.09;90.98;102725.69;4941629;28;20479;-68
2022/08/06 06:34:56;;;;;;;0.00;0.00;;;;;;;14.30;92.99;102725.28;4934941;28;20027;-69
2022/08/06 06:37:29;;;;;;;0.03;0.03;;;;;;;14.52;92.83;102730.19;4944299;28;20035;-69
2022/08/06 06:40:13;;;;;;;0.00;0.00;;;;;;;14.73;91.92;102728.88;4939710;28;20050;-68
2022/08/06 06:42:52;;;;;;;0.00;0.00;;;;;;;14.89;91.06;102723.34;4947980;28;20454;-68
2022/08/06 06:45:42;;;;;;;0.00;0.00;;;;;;;15.06;88.95;102727.63;4947970;28;20039;-68
2022/08/06 06:48:21;;;;;;;0.10;0.10;;;;;;;15.27;88.72;102723.47;4944971;28;20034;-69
2022/08/06 06:50:50;;;;;;;0.00;0.00;;;;;;;15.41;86.95;102725.22;4942898;28;20066;-68
2022/08/06 06:53:17;;;;;;;0.00;0.00;;;;;;;15.53;87.82;102728.94;4943084;28;20023;-68
2022/08/06 06:55:48;;;;;;;0.10;0.10;;;;;;;15.63;86.81;102731.00;4941446;28;20028;-69
2022/08/06 06:59:00;;;;;;;0.00;0.00;;;;;;;15.84;86.41;102736.78;4946059;28;20043;-68
2022/08/06 07:01:26;;;;;;;0.10;0.10;;;;;;;16.02;86.59;102730.09;4940235;28;20162;-68
2022/08/06 07:03:52;;;;;;;0.00;0.00;;;;;;;16.14;85.88;102730.19;4928736;28;20039;-66
2022/08/06 07:06:18;;;;;;;0.00;0.00;;;;;;;16.19;83.47;102734.28;4933261;28;20052;-68
2022/08/06 07:08:46;;;;;;;0.00;0.00;;;;;;;16.33;83.49;102736.00;4934258;28;20035;-68
2022/08/06 07:11:18;;;;;;;0.00;0.00;;;;;;;16.53;83.39;102743.69;4939524;28;20034;-68
2022/08/06 07:13:45;;;;;;;0.00;0.00;;;;;;;16.61;81.60;102741.25;4937381;28;20409;-68
2022/08/06 07:16:12;;;;;;;0.00;0.00;;;;;;;16.67;80.29;102748.09;4935356;28;20102;-68
2022/08/06 07:18:38;;;;;;;0.00;0.00;;;;;;;16.80;79.63;102754.31;4923414;28;20050;-65
2022/08/06 07:21:04;;;;;;;0.00;0.00;;;;;;;16.93;79.72;102752.44;4940355;28;20125;-66
2022/08/06 07:23:29;;;;;;;0.00;0.00;;;;;;;16.98;77.46;102743.97;4937831;28;20028;-68
2022/08/06 07:25:55;;;;;;;0.00;0.00;;;;;;;17.01;76.77;102740.16;4942062;28;20070;-68
2022/08/06 07:28:25;;;;;;;0.00;0.00;;;;;;;17.26;76.62;102754.56;4942881;28;20149;-68
2022/08/06 07:30:51;;;;;;;0.00;0.00;;;;;;;17.36;76.88;102759.19;4938140;28;20026;-68
2022/08/06 07:33:16;;;;;;;0.00;0.00;;;;;;;17.38;76.29;102730.06;4937079;28;20039;-65
2022/08/06 07:35:44;;;;;;;0.00;0.00;;;;;;;17.59;75.75;102762.00;4934603;28;21913;-68
2022/08/06 07:38:12;;;;;;;0.00;0.00;;;;;;;17.64;73.95;102761.63;4936716;28;20036;-68
2022/08/06 07:40:40;;;;;;;0.00;0.00;;;;;;;17.61;71.62;102762.72;4939770;28;20035;-68
2022/08/06 07:43:18;;;;;;;0.00;0.00;;;;;;;17.72;72.06;102755.59;4939862;28;20487;-68
2022/08/06 07:45:44;;;;;;;0.00;0.00;;;;;;;17.84;71.71;102762.81;4936460;28;20047;-68
2022/08/06 07:48:12;;;;;;;0.00;0.00;;;;;;;17.94;71.71;102757.50;4946895;28;20047;-68
2022/08/06 07:50:39;;;;;;;0.00;0.00;;;;;;;17.86;71.60;102743.66;4936890;28;20142;-67
2022/08/06 07:53:05;;;;;;;0.00;0.00;;;;;;;18.17;70.85;102755.69;4939909;28;20078;-67
2022/08/06 07:55:31;;;;;;;0.00;0.00;;;;;;;18.05;68.53;102732.22;4933377;28;20023;-67
2022/08/06 07:57:57;;;;;;;0.00;0.00;;;;;;;18.33;68.98;102760.75;4930410;28;20489;-67
2022/08/06 08:00:23;;;;;;;0.00;0.00;;;;;;;18.52;68.15;102762.00;4938178;28;20027;-67
2022/08/06 08:08:20;;;;;;;0.00;0.00;;;;;;;18.67;65.70;102774.34;4938606;28;20034;-68
2022/08/06 08:10:45;;;;;;;0.00;0.00;;;;;;;18.82;66.48;102764.03;4940889;28;20032;-68
2022/08/06 08:13:11;;;;;;;0.00;0.00;;;;;;;18.78;66.34;102778.03;4937437;28;20031;-68
2022/08/06 08:15:37;;;;;;;0.00;0.00;;;;;;;18.66;66.79;102780.75;4936486;28;20023;-68
2022/08/06 08:18:03;;;;;;;0.00;0.00;;;;;;;18.36;64.84;102779.53;4925664;28;20339;-68
2022/08/06 08:20:29;;;;;;;0.00;0.00;;;;;;;17.99;64.92;102777.91;4939166;28;20086;-68
2022/08/06 08:22:55;;;;;;;0.00;0.00;;;;;;;18.02;68.14;102779.50;4934500;28;20170;-68
2022/08/06 08:25:20;;;;;;;0.00;0.00;;;;;;;18.02;64.67;102776.78;4939985;28;20027;-68
2022/08/06 08:27:45;;;;;;;0.00;0.00;;;;;;;17.95;64.06;102783.69;4938321;28;20062;-68
2022/08/06 08:30:11;;;;;;;0.00;0.00;;;;;;;17.89;65.38;102779.56;4941113;28;20035;-68
2022/08/06 08:32:36;;;;;;;0.00;0.00;;;;;;;17.81;64.91;102777.47;4942239;28;20510;-69
2022/08/06 08:35:02;;;;;;;0.00;0.00;;;;;;;17.83;66.05;102780.09;4951557;28;20174;-69
2022/08/06 08:37:27;;;;;;;0.00;0.00;;;;;;;18.08;63.72;102772.75;4943303;28;20069;-68
2022/08/06 08:39:52;;;;;;;0.00;0.00;;;;;;;18.25;63.67;102776.84;4949787;28;20484;-68
2022/08/06 08:42:19;;;;;;;0.00;0.00;;;;;;;18.55;60.91;102772.59;4935812;28;20039;-68
2022/08/06 08:44:45;;;;;;;0.00;0.00;;;;;;;18.90;62.86;102774.28;4942397;28;20054;-68
2022/08/06 08:47:13;;;;;;;0.00;0.00;;;;;;;19.17;62.53;102773.00;4956335;28;20036;-69
2022/08/06 08:49:51;;;;;;;0.00;0.00;;;;;;;19.47;61.06;102779.56;4939041;28;20127;-69
2022/08/06 08:52:27;;;;;;;0.00;0.00;;;;;;;19.70;61.86;102776.72;4943647;28;20035;-69
2022/08/06 08:54:55;;;;;;;0.00;0.00;;;;;;;19.89;59.11;102776.00;4942086;28;20027;-68
2022/08/06 08:57:22;;;;;;;0.00;0.00;;;;;;;19.93;58.79;102777.47;4942597;28;20077;-69
2022/08/06 08:59:48;;;;;;;0.00;0.00;;;;;;;19.66;58.65;102765.22;4950976;28;20486;-68
2022/08/06 09:02:13;;;;;;;0.00;0.00;;;;;;;19.43;57.24;102776.25;4945607;28;20368;-68
2022/08/06 09:04:39;;;;;;;0.00;0.00;;;;;;;19.19;57.73;102779.19;4945836;28;20036;-68
2022/08/06 09:07:05;;;;;;;0.00;0.00;;;;;;;19.15;63.14;102778.59;4943314;28;20031;-68
2022/08/06 09:09:32;;;;;;;0.00;0.00;;;;;;;19.33;58.82;102788.91;4960927;28;20070;-68
2022/08/06 09:11:57;;;;;;;0.00;0.00;;;;;;;19.75;56.05;102769.84;4943058;28;20031;-69
2022/08/06 09:14:23;;;;;;;0.00;0.00;;;;;;;19.76;57.79;102790.66;4943624;28;20042;-68
2022/08/06 09:16:49;;;;;;;0.00;0.00;;;;;;;19.58;58.81;102795.88;4952806;28;20491;-67
2022/08/06 09:19:15;;;;;;;0.00;0.00;;;;;;;19.45;59.06;102803.34;4950608;28;20566;-69
2022/08/06 09:21:40;;;;;;;0.00;0.00;;;;;;;19.35;59.36;102797.81;4943126;28;20121;-68
2022/08/06 09:24:06;;;;;;;0.00;0.00;;;;;;;19.23;58.77;102787.94;4946957;28;20102;-68
2022/08/06 09:26:33;;;;;;;0.00;0.00;;;;;;;19.24;59.02;102795.13;4944902;28;20041;-68
2022/08/06 09:28:59;;;;;;;0.00;0.00;;;;;;;19.44;58.23;102794.31;4957845;28;20045;-68
2022/08/06 09:31:24;;;;;;;0.00;0.00;;;;;;;19.45;58.63;102808.78;4950162;28;20039;-68
2022/08/06 09:34:00;;;;;;;0.00;0.00;;;;;;;19.40;57.99;102792.84;4949148;28;20102;-68
2022/08/06 09:36:25;;;;;;;0.00;0.00;;;;;;;19.21;58.08;102801.69;4945539;28;20036;-68
2022/08/06 09:38:59;;;;;;;0.00;0.00;;;;;;;18.80;57.48;102787.78;4955457;28;20031;-68
2022/08/06 09:41:26;;;;;;;0.00;0.00;;;;;;;18.63;59.91;102802.78;4943549;28;20035;-68
2022/08/06 09:43:53;;;;;;;0.00;0.00;;;;;;;18.98;61.00;102801.78;4945765;28;20035;-68
2022/08/06 09:46:45;;;;;;;0.00;0.00;;;;;;;19.57;57.56;102796.84;4944279;28;20265;-68
2022/08/06 09:49:12;;;;;;;0.00;0.00;;;;;;;20.01;56.85;102802.19;4957676;28;20459;-69
2022/08/06 09:51:38;;;;;;;0.00;0.00;;;;;;;20.41;55.08;102802.41;4951387;28;20035;-69
2022/08/06 09:54:06;;;;;;;0.10;0.10;;;;;;;20.40;55.83;102784.31;4947174;28;20031;-68
2022/08/06 09:56:32;;;;;;;0.00;0.00;;;;;;;20.65;56.02;102802.91;4947635;28;20062;-68
2022/08/06 09:58:59;;;;;;;0.00;0.00;;;;;;;20.96;54.09;102794.69;4940144;28;20058;-68
2022/08/06 10:01:25;;;;;;;0.00;0.00;;;;;;;20.65;53.09;102799.34;4947559;28;20459;-68
2022/08/06 10:03:52;;;;;;;0.00;0.00;;;;;;;20.64;56.25;102793.00;4948195;28;20082;-68
2022/08/06 10:06:21;;;;;;;0.00;0.00;;;;;;;20.93;55.61;102794.97;4957527;28;20547;-68
2022/08/06 10:08:48;;;;;;;0.00;0.00;;;;;;;21.32;50.00;102801.50;4940527;28;20127;-68
2022/08/06 10:11:13;;;;;;;0.00;0.00;;;;;;;21.56;49.75;102792.84;4944575;28;20111;-68
2022/08/06 10:13:39;;;;;;;0.00;0.00;;;;;;;22.00;48.88;102795.13;4949433;28;20217;-68
2022/08/06 10:16:20;;;;;;;0.00;0.00;;;;;;;22.09;47.19;102766.88;4945307;28;20118;-68
2022/08/06 10:18:48;;;;;;;0.00;0.00;;;;;;;22.17;48.85;102797.06;4950612;28;20074;-68
2022/08/06 10:21:19;;;;;;;0.00;0.00;;;;;;;22.04;46.13;102799.28;4940577;28;20118;-68
2022/08/06 10:23:47;;;;;;;0.00;0.00;;;;;;;22.32;47.48;102777.44;4941248;28;20034;-68
2022/08/06 10:26:13;;;;;;;0.00;0.00;;;;;;;22.63;48.81;102779.94;4943974;28;20142;-68
2022/08/06 10:28:40;;;;;;;0.00;0.00;;;;;;;22.86;44.33;102788.56;4942756;28;20142;-68
2022/08/06 10:31:08;;;;;;;0.00;0.00;;;;;;;22.55;46.73;102777.06;4941338;28;20074;-68
2022/08/06 10:33:58;;;;;;;0.00;0.00;;;;;;;23.07;46.82;102779.19;4946863;28;20034;-68
2022/08/06 10:37:02;;;;;;;0.00;0.00;;;;;;;22.60;45.65;102777.50;4939341;28;20047;-68
2022/08/06 10:39:31;;;;;;;0.00;0.00;;;;;;;22.23;46.39;102775.59;4939032;28;20047;-68
2022/08/06 10:41:58;;;;;;;0.00;0.00;;;;;;;22.43;47.63;102770.94;4974948;23;20504;-68
2022/08/06 10:44:23;;;;;;;0.00;0.00;;;;;;;22.85;45.94;102759.44;4966827;28;20121;-68
2022/08/06 10:46:52;;;;;;;0.00;0.00;;;;;;;23.24;43.12;102757.47;4963982;28;20060;-69
2022/08/06 10:49:20;;;;;;;0.00;0.00;;;;;;;23.60;44.10;102761.03;4963054;28;20034;-68
2022/08/06 10:51:46;;;;;;;0.00;0.00;;;;;;;23.61;43.51;102770.09;4961236;28;20038;-68
2022/08/06 10:54:12;;;;;;;0.00;0.00;;;;;;;24.02;42.81;102755.84;4963445;28;20042;-68
2022/08/06 10:56:37;;;;;;;0.00;0.00;;;;;;;23.54;42.38;102758.91;4961488;28;20031;-66
2022/08/06 10:59:05;;;;;;;0.00;0.00;;;;;;;23.57;43.18;102761.34;4963409;28;20097;-66
2022/08/06 11:01:44;;;;;;;0.00;0.00;;;;;;;23.98;41.55;102758.06;4959479;28;20039;-66
2022/08/06 11:04:22;;;;;;;0.00;0.00;;;;;;;24.05;39.46;102756.38;4959674;28;20043;-68
2022/08/06 11:06:50;;;;;;;0.00;0.00;;;;;;;23.73;40.34;102755.13;4960236;28;20121;-67
2022/08/06 11:09:34;;;;;;;0.00;0.00;;;;;;;23.64;41.18;102754.22;4961974;28;20181;-68
2022/08/06 11:12:07;;;;;;;0.00;0.00;;;;;;;23.40;42.11;102760.34;4958553;28;20089;-68
2022/08/06 11:14:35;;;;;;;0.00;0.00;;;;;;;22.68;43.29;102760.28;4947212;28;20027;-68
2022/08/06 11:17:01;;;;;;;0.00;0.00;;;;;;;22.23;43.34;102745.50;4965962;28;20088;-68
2022/08/06 11:19:44;;;;;;;0.00;0.00;;;;;;;21.76;42.82;102754.56;4959378;28;20039;-68
2022/08/06 11:22:35;;;;;;;0.00;0.00;;;;;;;22.17;43.67;102750.56;4963613;28;20114;-68
2022/08/06 11:25:02;;;;;;;0.00;0.00;;;;;;;23.18;42.25;102758.91;4958281;28;20031;-68
2022/08/06 11:27:47;;;;;;;0.00;0.00;;;;;;;24.07;36.27;102747.97;4959270;28;20034;-68
2022/08/06 11:30:12;;;;;;;0.00;0.00;;;;;;;24.77;35.95;102743.31;4962173;28;20508;-69
2022/08/06 11:32:46;;;;;;;0.00;0.00;;;;;;;25.30;37.04;102757.59;4964363;28;20153;-68
2022/08/06 11:35:33;;;;;;;0.00;0.00;;;;;;;25.98;33.19;102744.50;4959518;28;20145;-69
2022/08/06 11:38:06;;;;;;;0.00;0.00;;;;;;;26.27;33.57;102742.19;4954941;28;20031;-69
2022/08/06 11:40:54;;;;;;;0.00;0.00;;;;;;;26.12;35.26;102740.19;4959596;28;20552;-69
2022/08/06 11:43:58;;;;;;;0.00;0.00;;;;;;;26.69;32.45;102729.06;4964807;28;20035;-69
2022/08/06 11:46:27;;;;;;;0.00;0.00;;;;;;;26.62;34.20;102716.00;4941098;29;20035;-69